Time;durP1;ratioP1;P1;durP2;ratioP2;P2;SDS_P1;SDS_P2;PMS_P1;PMS_P2;Temp;Humidity;BMP_temperature;BMP_pressure;BME280_temperature;BME280_humidity;BME280_pressure;Samples;Min_cycle;Max_cycle;Signal;HPM_P1;HPM_P2
2023/04/09 00:01:11;;;;;;;11.57;10.10;;;7.00;90.60;;;7.39;74.45;98668.66;4985691;28;20817;-73
2023/04/09 00:03:39;;;;;;;11.47;9.80;;;7.00;90.80;;;7.41;74.19;98667.44;4986944;28;20453;-74
2023/04/09 00:06:07;;;;;;;11.10;9.67;;;7.00;90.50;;;7.39;74.46;98671.34;4981257;28;20940;-74
2023/04/09 00:08:35;;;;;;;10.87;9.77;;;7.00;90.60;;;7.36;74.37;98673.38;4987768;28;20808;-75
2023/04/09 00:11:02;;;;;;;12.70;9.57;;;7.00;90.70;;;7.26;74.82;98672.75;4987397;28;20521;-73
2023/04/09 00:13:29;;;;;;;11.87;10.27;;;7.00;90.70;;;7.16;75.51;98666.78;4983861;28;20464;-75
2023/04/09 00:15:58;;;;;;;12.37;10.50;;;6.80;91.10;;;7.31;74.94;98665.00;4985094;28;20518;-73
2023/04/09 00:18:25;;;;;;;10.30;9.20;;;6.90;91.40;;;7.48;73.69;98664.88;4990011;28;20471;-75
2023/04/09 00:20:52;;;;;;;13.17;10.60;;;7.00;90.90;;;7.43;74.04;98670.81;4987157;28;20512;-75
2023/04/09 00:23:20;;;;;;;12.80;10.30;;;7.00;90.60;;;7.39;73.97;98665.97;4990091;28;20950;-76
2023/04/09 00:25:47;;;;;;;11.20;9.77;;;7.10;90.20;;;7.17;74.68;98668.44;4988259;28;20444;-75
2023/04/09 00:28:14;;;;;;;10.13;9.13;;;6.90;90.30;;;7.18;74.61;98654.00;4986632;28;20466;-73
2023/04/09 00:30:41;;;;;;;11.83;10.63;;;6.90;91.00;;;7.28;75.27;98665.34;4986203;28;20464;-74
2023/04/09 00:33:10;;;;;;;11.70;9.70;;;7.00;90.80;;;7.23;74.79;98671.25;4989869;28;20465;-75
2023/04/09 00:35:38;;;;;;;11.63;10.03;;;6.90;90.80;;;7.29;74.91;98661.66;4988904;28;20479;-75
2023/04/09 00:38:05;;;;;;;12.33;10.50;;;6.90;91.20;;;7.28;74.83;98670.72;4988621;28;20446;-74
2023/04/09 00:40:33;;;;;;;12.57;10.37;;;6.90;91.40;;;7.18;75.15;98670.97;4987497;28;20479;-71
2023/04/09 00:43:01;;;;;;;13.20;9.80;;;6.80;91.50;;;7.12;75.23;98668.97;4983670;28;20544;-73
2023/04/09 00:45:28;;;;;;;12.40;10.23;;;6.80;91.40;;;7.17;74.88;98663.06;4979720;28;20480;-75
2023/04/09 00:47:55;;;;;;;13.00;11.60;;;6.80;91.20;;;7.25;75.01;98668.41;4985962;28;20545;-75
2023/04/09 00:50:24;;;;;;;14.77;11.57;;;6.80;91.60;;;7.22;74.92;98660.72;4983823;28;20456;-75
2023/04/09 00:52:51;;;;;;;12.60;10.73;;;6.80;91.50;;;7.10;75.26;98660.25;4987886;28;20560;-74
2023/04/09 00:55:21;;;;;;;12.03;10.20;;;6.80;91.30;;;7.18;74.97;98657.53;4985968;28;20479;-73
2023/04/09 00:57:48;;;;;;;12.93;10.73;;;6.70;91.80;;;7.17;74.99;98661.22;4984082;28;20462;-73
2023/04/09 01:00:16;;;;;;;12.93;10.80;;;6.80;91.20;;;7.22;74.69;98666.09;4987711;28;20482;-74
2023/04/09 01:02:44;;;;;;;12.07;10.77;;;6.70;91.60;;;7.08;75.36;98665.81;4985472;28;20545;-73
2023/04/09 01:05:12;;;;;;;11.07;9.77;;;6.70;91.60;;;7.09;75.44;98662.13;4980332;28;20453;-73
2023/04/09 01:07:55;;;;;;;12.90;10.50;;;6.70;92.30;;;7.08;75.60;98657.75;4984635;28;20451;-73
2023/04/09 01:10:32;;;;;;;14.20;11.30;;;6.70;92.20;;;7.31;74.21;98658.78;4998582;28;20557;-73
2023/04/09 01:13:08;;;;;;;11.63;10.43;;;6.80;91.60;;;7.16;74.77;98656.88;4980476;28;20463;-75
2023/04/09 01:15:42;;;;;;;12.67;10.60;;;6.70;91.30;;;7.23;75.12;98657.00;4987432;28;20895;-71
2023/04/09 01:18:15;;;;;;;12.70;10.80;;;6.70;91.70;;;7.20;74.85;98657.34;4989135;28;20501;-74
2023/04/09 01:20:48;;;;;;;13.07;11.47;;;6.70;91.70;;;7.37;74.29;98660.75;4990658;28;20494;-73
2023/04/09 01:23:29;;;;;;;14.97;10.93;;;6.70;91.90;;;7.25;74.61;98652.28;4990574;28;20792;-74
2023/04/09 01:26:06;;;;;;;14.23;11.20;;;6.70;91.90;;;7.21;75.20;98645.59;4988415;28;20995;-74
2023/04/09 01:28:40;;;;;;;13.80;10.80;;;6.70;92.00;;;7.37;74.51;98653.53;4989845;28;20464;-73
2023/04/09 01:31:12;;;;;;;14.67;11.93;;;6.70;92.00;;;7.18;74.93;98630.66;4988685;28;20936;-71
2023/04/09 01:33:41;;;;;;;12.60;11.30;;;6.70;91.80;;;7.30;74.76;98647.19;4988665;28;20480;-72
2023/04/09 01:36:09;;;;;;;12.53;11.23;;;6.80;91.90;;;7.04;75.71;98648.34;4982031;28;20471;-73
2023/04/09 01:38:41;;;;;;;13.17;11.77;;;6.70;91.90;;;6.95;76.00;98650.25;4988391;28;20467;-73
2023/04/09 01:41:21;;;;;;;12.20;11.00;;;6.60;92.60;;;6.90;76.88;98652.66;4990880;28;20451;-74
2023/04/09 01:43:51;;;;;;;13.63;11.00;;;6.50;93.10;;;6.95;76.15;98647.56;4987840;28;20481;-73
2023/04/09 01:46:20;;;;;;;13.40;10.93;;;6.50;93.00;;;6.92;76.72;98649.78;4999201;28;20462;-71
2023/04/09 01:48:47;;;;;;;12.93;11.03;;;6.50;93.30;;;6.94;76.63;98655.81;5002294;28;20534;-71
2023/04/09 01:51:16;;;;;;;14.80;13.17;;;6.40;94.10;;;6.79;76.61;98645.81;5001005;28;20464;-72
2023/04/09 01:53:43;;;;;;;13.77;12.27;;;6.40;93.60;;;6.91;76.83;98653.50;5001121;28;20450;-72
2023/04/09 01:56:10;;;;;;;14.07;10.90;;;6.40;93.90;;;7.18;75.64;98656.69;4986212;28;20503;-71
2023/04/09 01:58:38;;;;;;;14.33;12.47;;;6.60;93.70;;;7.19;75.53;98655.66;4989399;28;20854;-73
2023/04/09 02:01:13;;;;;;;15.93;10.87;;;6.60;92.80;;;7.20;75.31;98662.72;4982637;28;20451;-72
2023/04/09 02:03:47;;;;;;;12.90;11.70;;;6.70;92.30;;;7.15;75.80;98665.09;5001867;28;20944;-73
2023/04/09 02:06:17;;;;;;;13.60;12.10;;;6.70;92.40;;;7.00;76.04;98665.84;4989336;28;20464;-74
2023/04/09 02:08:47;;;;;;;12.17;10.87;;;6.70;92.20;;;6.74;77.49;98668.84;4990455;28;20456;-73
2023/04/09 02:11:17;;;;;;;12.37;11.13;;;6.70;92.50;;;6.68;77.40;98643.53;4987299;28;20940;-73
2023/04/09 02:13:45;;;;;;;13.30;11.90;;;6.60;93.10;;;6.84;77.32;98668.63;4990404;28;20462;-73
2023/04/09 02:16:16;;;;;;;14.70;11.33;;;6.60;93.10;;;6.84;77.41;98674.00;4986637;28;20479;-72
2023/04/09 02:18:43;;;;;;;13.90;11.17;;;6.50;93.40;;;6.77;77.85;98665.81;4989737;28;20836;-73
2023/04/09 02:21:12;;;;;;;12.67;11.37;;;6.50;93.70;;;6.74;78.12;98669.66;4991009;28;20946;-74
2023/04/09 02:23:39;;;;;;;13.07;11.67;;;6.50;94.10;;;6.77;77.77;98658.59;4991777;28;20458;-74
2023/04/09 02:26:06;;;;;;;13.00;11.00;;;6.40;94.10;;;6.66;78.41;98667.03;4987056;28;20450;-71
2023/04/09 02:28:34;;;;;;;13.27;11.40;;;6.30;94.60;;;6.56;78.88;98671.75;4988174;28;20486;-74
2023/04/09 02:31:01;;;;;;;12.77;10.63;;;6.20;96.00;;;6.37;79.19;98658.59;4989990;28;20537;-73
2023/04/09 02:33:29;;;;;;;13.53;11.97;;;6.00;95.80;;;6.22;80.15;98657.63;4988139;28;20553;-74
2023/04/09 02:35:57;;;;;;;13.30;11.27;;;5.80;97.70;;;6.27;80.45;98662.44;4988065;28;20472;-71
2023/04/09 02:38:24;;;;;;;14.37;12.40;;;5.80;98.70;;;6.23;79.82;98657.44;4981117;28;20450;-73
2023/04/09 02:40:52;;;;;;;12.97;11.67;;;5.70;99.10;;;6.18;79.99;98664.31;4990857;28;20942;-75
2023/04/09 02:43:19;;;;;;;13.20;11.40;;;5.60;98.60;;;6.06;80.12;98655.81;4987140;28;20464;-73
2023/04/09 02:45:46;;;;;;;13.67;12.33;;;5.60;99.80;;;5.87;80.36;98660.50;4981465;28;20509;-75
2023/04/09 02:48:13;;;;;;;14.70;11.87;;;5.40;99.20;;;5.80;80.00;98659.47;4989559;28;20465;-73
2023/04/09 02:50:42;;;;;;;12.90;11.50;;;5.30;99.90;;;5.66;81.30;98669.88;4986932;28;21132;-75
2023/04/09 02:53:09;;;;;;;16.10;13.17;;;5.20;99.90;;;5.71;80.44;98660.50;4984249;28;20528;-72
2023/04/09 02:55:36;;;;;;;14.13;11.17;;;5.10;99.90;;;5.64;80.81;98657.66;4986370;28;20561;-74
2023/04/09 02:58:04;;;;;;;13.50;11.20;;;5.10;99.90;;;5.51;80.79;98661.69;4983666;28;20468;-74
2023/04/09 03:00:31;;;;;;;14.10;12.00;;;5.10;99.90;;;5.55;81.50;98670.22;4987750;28;20471;-74
2023/04/09 03:02:58;;;;;;;13.83;12.33;;;5.00;99.90;;;5.48;81.40;98659.34;4978274;28;20947;-74
2023/04/09 03:05:26;;;;;;;14.03;12.47;;;5.00;99.90;;;5.47;82.36;98668.38;4981586;28;20471;-74
2023/04/09 03:07:55;;;;;;;13.10;11.70;;;5.00;99.90;;;5.38;82.29;98664.88;4982620;28;22316;-74
2023/04/09 03:10:22;;;;;;;16.97;12.60;;;4.90;99.90;;;5.20;82.65;98659.63;4985102;28;21021;-74
2023/04/09 03:12:49;;;;;;;15.50;13.53;;;4.70;99.90;;;5.20;82.53;98654.28;4984396;28;20448;-75
2023/04/09 03:15:17;;;;;;;16.20;12.90;;;4.70;99.90;;;5.07;82.76;98638.66;4984298;28;20469;-74
2023/04/09 03:17:44;;;;;;;14.33;12.60;;;4.70;99.90;;;5.07;83.08;98661.97;4980657;28;20471;-74
2023/04/09 03:20:11;;;;;;;17.10;13.23;;;4.70;99.90;;;4.91;83.85;98649.34;4985333;28;20463;-75
2023/04/09 03:22:40;;;;;;;17.20;13.63;;;4.70;99.90;;;4.88;84.61;98652.38;4985259;28;20805;-74
2023/04/09 03:25:09;;;;;;;16.67;14.10;;;4.70;99.90;;;4.87;85.13;98666.75;4985806;28;20512;-75
2023/04/09 03:27:36;;;;;;;18.20;14.17;;;4.70;99.90;;;4.89;86.31;98659.38;4969360;28;20499;-76
2023/04/09 03:30:04;;;;;;;17.00;15.20;;;4.70;99.90;;;4.91;85.49;98663.59;4989172;28;20913;-74
2023/04/09 03:32:32;;;;;;;17.10;14.00;;;4.70;99.90;;;4.87;86.26;98672.97;4984887;28;22585;-77
2023/04/09 03:34:59;;;;;;;17.67;13.93;;;4.70;99.90;;;4.82;86.06;98664.56;4995723;28;20843;-75
2023/04/09 03:37:26;;;;;;;19.07;14.40;;;4.60;99.90;;;4.79;87.08;98673.78;4985063;28;20490;-75
2023/04/09 03:39:53;;;;;;;18.60;15.00;;;4.60;99.90;;;4.78;87.27;98668.56;4986948;28;20902;-75
2023/04/09 03:42:21;;;;;;;21.27;15.70;;;4.60;99.90;;;4.60;86.87;98657.94;4986383;28;20518;-74
2023/04/09 03:44:48;;;;;;;17.17;14.97;;;4.60;99.90;;;4.69;87.49;98665.03;4987186;28;20453;-74
2023/04/09 03:47:16;;;;;;;19.93;15.00;;;4.50;99.90;;;4.62;87.22;98672.88;4987497;28;20465;-75
2023/04/09 03:49:43;;;;;;;18.20;15.50;;;4.50;99.90;;;4.53;87.83;98677.34;4989163;28;20459;-73
2023/04/09 03:52:10;;;;;;;19.23;15.27;;;4.50;99.90;;;4.58;88.02;98673.34;4988480;28;20465;-74
2023/04/09 03:54:37;;;;;;;18.90;14.37;;;4.50;99.90;;;4.52;87.94;98674.81;4984445;28;20490;-73
2023/04/09 03:57:04;;;;;;;19.43;14.47;;;4.50;99.90;;;4.52;87.08;98672.13;4983831;28;21020;-74
2023/04/09 03:59:33;;;;;;;20.87;15.90;;;4.40;99.90;;;4.52;87.93;98681.03;4988338;28;20452;-74
2023/04/09 04:02:00;;;;;;;22.43;16.13;;;4.40;99.90;;;4.42;87.08;98677.63;4982490;28;20464;-72
2023/04/09 04:04:27;;;;;;;18.70;14.20;;;4.30;99.90;;;4.40;87.52;98682.28;4985974;28;20466;-74
2023/04/09 04:06:55;;;;;;;20.50;15.67;;;4.30;99.90;;;4.31;88.69;98678.75;4985451;28;20476;-74
2023/04/09 04:09:22;;;;;;;20.80;14.67;;;4.30;99.90;;;4.30;88.40;98679.75;4982194;28;20566;-72
2023/04/09 04:11:49;;;;;;;16.97;14.67;;;4.20;99.90;;;4.22;88.20;98679.69;4983874;28;20459;-73
2023/04/09 04:14:16;;;;;;;17.27;13.47;;;4.20;99.90;;;4.15;88.97;98678.66;4984492;28;20462;-74
2023/04/09 04:16:45;;;;;;;19.07;16.03;;;4.20;99.90;;;4.19;88.75;98678.19;4983775;28;20486;-74
2023/04/09 04:19:12;;;;;;;18.33;14.90;;;4.10;99.90;;;4.11;88.62;98673.63;4983181;28;20936;-73
2023/04/09 04:21:39;;;;;;;18.33;14.60;;;4.10;99.90;;;4.11;89.09;98683.47;4983376;28;20547;-72
2023/04/09 04:24:07;;;;;;;18.87;14.50;;;4.00;99.90;;;4.09;88.37;98689.00;4985663;28;20448;-74
2023/04/09 04:26:34;;;;;;;16.30;14.43;;;3.90;99.90;;;4.03;89.04;98686.94;4985152;28;20468;-74
2023/04/09 04:29:01;;;;;;;19.30;15.30;;;3.90;99.90;;;4.02;88.50;98689.75;4981174;28;21882;-74
2023/04/09 04:31:28;;;;;;;19.30;15.90;;;3.90;99.90;;;4.03;88.73;98691.44;5004114;28;20458;-73
2023/04/09 04:33:57;;;;;;;15.80;14.00;;;3.90;99.90;;;3.98;88.68;98694.59;4985994;28;20453;-73
2023/04/09 04:36:24;;;;;;;16.20;14.00;;;3.90;99.90;;;4.02;88.05;98700.44;4983408;28;20476;-73
2023/04/09 04:38:52;;;;;;;17.50;14.27;;;3.80;99.90;;;3.97;87.80;98714.31;4995019;28;20559;-71
2023/04/09 04:41:19;;;;;;;19.03;14.97;;;3.70;99.90;;;3.87;88.15;98706.38;5000285;28;20463;-74
2023/04/09 04:43:47;;;;;;;18.63;14.60;;;3.60;99.90;;;3.86;87.78;98704.66;5000902;28;20458;-71
2023/04/09 04:46:14;;;;;;;19.47;15.20;;;3.60;99.90;;;3.83;88.37;98713.00;5000803;28;20555;-71
2023/04/09 04:48:41;;;;;;;19.67;14.73;;;3.70;99.90;;;3.86;88.04;98704.66;4999964;28;20453;-72
2023/04/09 04:51:10;;;;;;;21.83;16.07;;;3.70;99.90;;;3.93;86.94;98708.41;5000086;28;20515;-74
2023/04/09 04:53:37;;;;;;;18.87;15.13;;;3.70;99.90;;;3.94;87.73;98710.09;4985687;28;20457;-76
2023/04/09 04:56:05;;;;;;;20.43;14.70;;;3.70;99.90;;;4.17;88.27;98714.09;4986181;28;20474;-74
2023/04/09 04:58:32;;;;;;;19.63;15.77;;;3.80;99.90;;;4.58;87.53;98710.81;4986526;28;20503;-74
2023/04/09 05:01:00;;;;;;;18.33;16.17;;;4.20;99.90;;;4.52;85.23;98664.97;4982578;28;21018;-74
2023/04/09 05:03:27;;;;;;;18.50;14.93;;;4.60;99.90;;;5.15;83.93;98722.75;4987241;28;20976;-74
2023/04/09 05:05:54;;;;;;;16.83;14.43;;;5.00;99.90;;;5.57;83.44;98708.44;4996970;28;20469;-74
2023/04/09 05:08:23;;;;;;;16.23;13.70;;;5.40;99.90;;;5.77;81.34;98717.00;4982834;28;20464;-73
2023/04/09 05:10:50;;;;;;;14.33;12.80;;;5.80;99.90;;;5.79;79.20;98714.13;4978567;28;20464;-73
2023/04/09 05:13:17;;;;;;;15.47;12.63;;;5.90;95.30;;;6.07;79.48;98695.88;4980827;28;20518;-74
2023/04/09 05:15:44;;;;;;;14.50;12.73;;;6.20;93.70;;;6.25;78.70;98710.94;4985136;28;20601;-72
2023/04/09 05:18:11;;;;;;;15.80;13.43;;;6.50;91.90;;;6.66;78.25;98718.06;4983582;28;20464;-73
2023/04/09 05:20:38;;;;;;;13.87;12.47;;;6.90;91.80;;;6.62;76.38;98716.72;4987846;28;20453;-75
2023/04/09 05:23:09;;;;;;;13.23;11.80;;;7.00;89.50;;;6.27;75.33;98651.72;4978961;28;20466;-74
2023/04/09 05:25:37;;;;;;;12.57;10.50;;;7.20;87.00;;;5.99;75.39;98654.75;4993850;28;20471;-73
2023/04/09 05:28:05;;;;;;;13.27;11.50;;;7.10;85.20;;;6.05;75.92;98718.50;4991815;28;20488;-75
2023/04/09 05:30:32;;;;;;;12.20;11.00;;;6.80;85.40;;;6.06;75.87;98720.19;4978820;28;20480;-74
2023/04/09 05:33:00;;;;;;;12.80;10.83;;;6.70;85.30;;;6.30;75.13;98721.19;4975486;28;21117;-74
2023/04/09 05:35:27;;;;;;;12.40;11.10;;;6.90;85.20;;;6.55;73.87;98713.03;4978864;28;20502;-72
2023/04/09 05:37:55;;;;;;;17.33;12.67;;;6.90;85.10;;;6.15;75.05;98716.50;4980582;28;20556;-74
2023/04/09 05:40:23;;;;;;;13.87;12.30;;;6.50;85.50;;;5.81;76.20;98723.69;4979051;28;20450;-72
2023/04/09 05:42:51;;;;;;;14.23;12.70;;;6.00;88.20;;;5.35;77.75;98718.78;4978098;28;20831;-71
2023/04/09 05:45:19;;;;;;;15.23;13.23;;;5.50;90.70;;;5.10;78.58;98724.09;4976477;28;20456;-74
2023/04/09 05:47:46;;;;;;;15.63;13.40;;;5.10;92.50;;;4.67;81.04;98720.56;4982455;28;20454;-74
2023/04/09 05:50:13;;;;;;;16.60;13.77;;;4.80;94.30;;;4.59;81.68;98726.72;4980332;28;21182;-74
2023/04/09 05:52:40;;;;;;;15.37;13.77;;;4.70;96.60;;;4.80;81.19;98726.31;4978544;28;21146;-74
2023/04/09 05:55:09;;;;;;;17.30;15.40;;;4.60;97.70;;;4.80;81.60;98720.97;4977977;28;20467;-71
2023/04/09 05:57:36;;;;;;;16.20;14.37;;;4.70;98.20;;;4.95;80.97;98718.50;4993688;28;21060;-72
2023/04/09 06:00:07;;;;;;;15.90;14.20;;;4.70;98.00;;;5.03;80.62;98709.66;4975776;28;21116;-70
2023/04/09 06:02:34;;;;;;;17.90;15.63;;;4.70;98.10;;;4.65;80.61;98658.31;4997397;28;20456;-73
2023/04/09 06:05:01;;;;;;;19.50;14.87;;;4.80;98.00;;;4.92;80.43;98723.34;4979203;28;20540;-76
2023/04/09 06:07:28;;;;;;;18.30;14.80;;;4.80;96.00;;;4.85;80.83;98733.84;4979001;28;21076;-71
2023/04/09 06:09:55;;;;;;;17.53;15.30;;;4.80;95.90;;;5.05;80.01;98726.41;4983457;28;20473;-74
2023/04/09 06:12:23;;;;;;;18.57;15.53;;;4.80;96.30;;;5.13;79.65;98730.13;4980682;28;20454;-72
2023/04/09 06:14:50;;;;;;;19.87;15.93;;;4.90;95.90;;;5.25;78.86;98731.50;4981191;28;20569;-71
2023/04/09 06:17:18;;;;;;;20.23;16.60;;;5.00;94.90;;;5.36;78.40;98727.66;4982917;28;20470;-75
2023/04/09 06:19:45;;;;;;;21.30;16.30;;;5.10;94.30;;;5.50;78.13;98726.16;4984571;28;20477;-74
2023/04/09 06:22:13;;;;;;;21.73;18.20;;;5.20;94.00;;;5.44;78.28;98733.03;4985253;28;20446;-74
2023/04/09 06:24:40;;;;;;;21.17;17.20;;;5.30;93.20;;;5.55;77.96;98729.22;4978325;28;20460;-72
2023/04/09 06:27:07;;;;;;;18.93;16.90;;;5.40;92.80;;;5.73;77.52;98730.91;4993011;28;21293;-71
2023/04/09 06:29:34;;;;;;;19.33;16.53;;;5.50;92.40;;;5.71;77.53;98738.28;4979993;28;20459;-71
2023/04/09 06:32:02;;;;;;;20.17;16.97;;;5.50;92.40;;;5.78;76.45;98733.91;4985336;28;21004;-72
2023/04/09 06:34:31;;;;;;;19.73;15.90;;;5.60;92.00;;;6.05;75.61;98734.63;4981830;28;20457;-73
2023/04/09 06:36:58;;;;;;;20.03;16.80;;;5.70;91.60;;;6.14;75.48;98730.94;4981502;28;20531;-74
2023/04/09 06:39:25;;;;;;;21.13;17.30;;;5.80;91.00;;;6.14;74.96;98717.50;4987115;28;20510;-74
2023/04/09 06:41:52;;;;;;;22.37;18.67;;;6.00;90.50;;;6.33;74.79;98745.00;4984598;28;20529;-72
2023/04/09 06:44:20;;;;;;;21.30;18.90;;;6.10;90.20;;;6.34;74.52;98739.44;4982608;28;20459;-74
2023/04/09 06:46:47;;;;;;;20.80;17.47;;;6.20;89.70;;;6.33;75.07;98745.00;4981127;28;20473;-74
2023/04/09 06:49:14;;;;;;;21.70;18.03;;;6.20;89.40;;;6.33;74.69;98745.00;4980143;28;20538;-72
2023/04/09 06:51:43;;;;;;;22.83;18.23;;;6.20;89.30;;;6.07;75.92;98754.06;4982654;28;20717;-70
2023/04/09 06:54:10;;;;;;;21.13;18.40;;;6.10;89.50;;;6.38;74.81;98748.00;4977983;28;20450;-73
2023/04/09 06:56:37;;;;;;;22.77;18.80;;;6.20;89.10;;;6.31;74.61;98757.75;4974902;28;20566;-73
2023/04/09 06:59:04;;;;;;;22.00;17.57;;;6.20;88.10;;;6.67;73.68;98743.91;4977353;28;20949;-72
2023/04/09 07:01:34;;;;;;;22.83;16.50;;;6.40;88.40;;;6.55;73.65;98747.94;4989988;28;20605;-73
2023/04/09 07:04:01;;;;;;;21.80;18.53;;;6.50;87.30;;;6.55;73.53;98747.94;4973559;28;20465;-73
2023/04/09 07:06:28;;;;;;;20.47;17.13;;;6.50;86.20;;;6.58;74.26;98759.19;4981428;28;20963;-72
2023/04/09 07:08:57;;;;;;;26.23;18.40;;;6.50;88.40;;;6.84;73.67;98749.22;4987046;28;20451;-71
2023/04/09 07:11:24;;;;;;;20.00;17.70;;;6.60;87.60;;;7.09;72.27;98742.75;4989579;28;21696;-71
2023/04/09 07:13:51;;;;;;;20.50;17.90;;;6.80;86.60;;;7.10;71.07;98748.94;4976978;28;20925;-69
2023/04/09 07:16:19;;;;;;;20.70;18.47;;;6.90;84.80;;;7.10;71.43;98751.63;4977661;28;20562;-71
2023/04/09 07:18:46;;;;;;;20.57;18.00;;;7.00;84.10;;;7.14;70.70;98744.06;4977734;28;20462;-71
2023/04/09 07:21:13;;;;;;;23.57;18.93;;;7.00;84.10;;;7.07;70.72;98749.28;4983914;28;20457;-71
2023/04/09 07:23:40;;;;;;;22.13;18.03;;;7.00;83.40;;;7.29;69.88;98753.03;4984196;28;20472;-71
2023/04/09 07:26:10;;;;;;;24.43;19.27;;;7.00;83.20;;;7.21;69.78;98753.94;4980408;28;20466;-71
2023/04/09 07:28:37;;;;;;;24.23;18.93;;;7.10;82.60;;;7.23;69.57;98751.06;4979972;28;20473;-69
2023/04/09 07:31:04;;;;;;;22.23;19.30;;;7.10;82.50;;;7.72;68.32;98755.28;5001645;28;20460;-71
2023/04/09 07:33:32;;;;;;;22.60;18.70;;;7.30;82.30;;;7.85;67.94;98761.94;4991467;28;20442;-69
2023/04/09 07:35:59;;;;;;;19.83;17.37;;;7.50;82.30;;;7.62;67.26;98701.75;4997510;28;20546;-69
2023/04/09 07:38:28;;;;;;;20.77;18.30;;;7.60;81.30;;;8.08;67.15;98759.22;4996637;28;20532;-68
2023/04/09 07:40:55;;;;;;;21.70;17.03;;;7.80;81.40;;;7.88;67.85;98754.34;4985287;28;20455;-74
2023/04/09 07:43:25;;;;;;;20.60;18.23;;;7.80;80.30;;;8.04;65.96;98761.47;4980580;28;20460;-73
2023/04/09 07:45:52;;;;;;;23.97;19.50;;;8.00;79.90;;;8.06;65.96;98754.06;4972684;28;20538;-70
2023/04/09 07:48:20;;;;;;;20.60;17.93;;;8.00;79.60;;;8.23;66.10;98768.19;4976675;28;20463;-74
2023/04/09 07:50:47;;;;;;;23.10;18.07;;;8.00;79.70;;;8.60;63.58;98760.28;4986495;28;20455;-72
2023/04/09 07:53:15;;;;;;;20.57;18.37;;;8.30;78.90;;;8.25;63.92;98710.63;4974606;28;20469;-71
2023/04/09 07:55:42;;;;;;;22.00;18.80;;;8.40;78.30;;;8.66;62.94;98757.91;4975418;28;20570;-69
2023/04/09 07:58:10;;;;;;;21.37;18.80;;;8.60;77.60;;;8.81;62.44;98761.44;4977341;28;20502;-77
2023/04/09 08:00:38;;;;;;;20.80;18.40;;;8.60;76.70;;;8.94;60.96;98760.78;4978838;28;20452;-70
2023/04/09 08:03:05;;;;;;;20.03;17.90;;;8.70;75.90;;;8.91;61.70;98756.59;4974123;28;20547;-67
2023/04/09 08:05:32;;;;;;;21.00;18.33;;;8.70;75.90;;;8.85;61.53;98764.56;4988942;28;21038;-68
2023/04/09 08:08:00;;;;;;;20.87;18.67;;;8.70;75.60;;;8.77;62.05;98768.19;4975653;28;20559;-68
2023/04/09 08:10:28;;;;;;;23.20;18.20;;;8.80;75.80;;;8.87;61.43;98771.47;4980675;28;20481;-69
2023/04/09 08:12:55;;;;;;;20.47;18.30;;;8.70;75.50;;;8.84;61.43;98779.06;4976138;28;20471;-68
2023/04/09 08:15:22;;;;;;;20.77;18.50;;;8.70;75.70;;;8.98;60.63;98772.03;4992633;28;20534;-68
2023/04/09 08:17:51;;;;;;;18.73;16.80;;;8.90;74.90;;;8.58;61.54;98767.72;4979872;28;21047;-67
2023/04/09 08:20:18;;;;;;;20.37;17.73;;;8.70;74.90;;;8.86;61.30;98764.41;4984740;28;20521;-67
2023/04/09 08:22:45;;;;;;;20.17;17.00;;;8.70;75.60;;;9.02;61.68;98760.69;4983317;28;20466;-67
2023/04/09 08:25:12;;;;;;;18.57;15.80;;;8.80;75.50;;;8.82;61.18;98763.09;4985938;28;20554;-68
2023/04/09 08:27:40;;;;;;;17.80;16.00;;;8.90;74.50;;;9.25;59.55;98761.56;4982142;28;21235;-67
2023/04/09 08:30:09;;;;;;;19.63;17.43;;;9.00;74.50;;;9.27;59.75;98760.34;4977046;28;20552;-66
2023/04/09 08:32:36;;;;;;;18.63;15.63;;;9.10;74.30;;;9.68;58.93;98761.63;4980209;28;20466;-67
2023/04/09 08:35:06;;;;;;;19.03;16.20;;;9.30;74.10;;;9.54;58.16;98763.38;4988573;28;20502;-69
2023/04/09 08:37:34;;;;;;;19.07;16.40;;;9.40;73.50;;;9.40;59.43;98751.59;4981699;28;20483;-67
2023/04/09 08:40:01;;;;;;;18.57;16.60;;;9.40;73.70;;;9.61;60.03;98764.25;4986832;28;20563;-66
2023/04/09 08:42:31;;;;;;;19.00;17.10;;;9.50;73.90;;;9.53;58.95;98759.00;4984971;28;20462;-66
2023/04/09 08:44:58;;;;;;;18.47;15.70;;;9.50;73.60;;;9.87;58.75;98765.59;4986378;28;20562;-65
2023/04/09 08:47:27;;;;;;;18.37;16.03;;;9.70;73.40;;;9.85;58.42;98762.25;4984063;28;20904;-66
2023/04/09 08:49:55;;;;;;;17.43;15.50;;;9.70;72.70;;;9.83;57.06;98763.44;4982913;28;21316;-66
2023/04/09 08:52:33;;;;;;;17.23;15.53;;;9.80;71.60;;;10.18;56.61;98769.00;4985020;28;20549;-65
2023/04/09 08:55:00;;;;;;;18.30;16.00;;;9.80;71.70;;;10.13;56.52;98712.88;4978479;28;20546;-65
2023/04/09 08:57:28;;;;;;;17.23;15.60;;;10.00;70.60;;;10.69;55.43;98757.16;4985904;28;20468;-66
2023/04/09 08:59:55;;;;;;;15.17;13.60;;;10.20;69.70;;;10.57;52.97;98756.03;4986417;28;20452;-65
2023/04/09 09:02:23;;;;;;;20.10;17.90;;;10.40;67.00;;;10.46;54.12;98758.22;4977201;28;20463;-69
2023/04/09 09:04:52;;;;;;;17.43;14.90;;;10.40;66.80;;;10.35;54.39;98764.13;4981021;28;20460;-65
2023/04/09 09:07:19;;;;;;;16.10;14.40;;;10.30;66.50;;;10.90;53.01;98755.38;4987855;28;20467;-69
2023/04/09 09:09:56;;;;;;;16.33;14.80;;;10.60;66.50;;;10.62;52.94;98756.25;4983814;28;21219;-67
2023/04/09 09:12:38;;;;;;;15.47;14.03;;;10.60;65.00;;;10.64;53.28;98756.88;5002616;28;20447;-66
2023/04/09 09:15:25;;;;;;;18.27;16.43;;;10.50;65.50;;;10.64;53.43;98751.47;4986094;28;20479;-68
2023/04/09 09:17:57;;;;;;;16.03;14.37;;;10.60;65.70;;;10.48;55.04;98755.34;4998588;28;20562;-69
2023/04/09 09:20:25;;;;;;;17.00;15.17;;;10.40;66.50;;;10.63;54.28;98757.91;4988470;28;20812;-69
2023/04/09 09:22:56;;;;;;;17.00;15.30;;;10.50;66.40;;;10.25;54.86;98763.66;4986479;28;20465;-69
2023/04/09 09:25:25;;;;;;;17.30;15.23;;;10.30;65.40;;;10.33;54.63;98766.19;4990461;28;20471;-69
2023/04/09 09:27:52;;;;;;;15.97;14.27;;;10.20;65.50;;;10.35;53.85;98750.63;4987833;28;20472;-69
2023/04/09 09:30:25;;;;;;;16.87;15.07;;;10.10;65.70;;;10.49;53.68;98755.13;4988960;28;20467;-68
2023/04/09 09:32:53;;;;;;;17.33;15.53;;;10.20;65.40;;;10.56;52.89;98746.25;4981395;28;20467;-64
2023/04/09 09:35:22;;;;;;;16.10;14.40;;;10.30;64.90;;;10.59;53.52;98751.25;5002288;28;20525;-68
2023/04/09 09:38:03;;;;;;;17.40;15.50;;;10.40;65.00;;;10.32;52.96;98759.97;4988935;28;20470;-68
2023/04/09 09:40:32;;;;;;;16.60;14.63;;;10.30;64.00;;;10.33;53.65;98748.13;4983680;28;23115;-69
2023/04/09 09:42:59;;;;;;;16.87;15.10;;;10.20;64.40;;;10.37;53.81;98750.44;4989359;28;20460;-68
2023/04/09 09:45:26;;;;;;;15.13;13.47;;;10.30;64.40;;;10.37;52.07;98721.53;4988425;28;20452;-71
2023/04/09 09:47:54;;;;;;;16.43;14.73;;;10.30;63.60;;;10.40;52.68;98750.88;4983132;28;20448;-69
2023/04/09 09:50:25;;;;;;;15.73;14.00;;;10.40;63.20;;;10.67;51.53;98748.38;4986818;28;20587;-70
2023/04/09 09:53:05;;;;;;;15.93;14.30;;;10.60;63.00;;;11.04;51.31;98751.72;4989742;28;20463;-68
2023/04/09 09:55:39;;;;;;;15.03;13.43;;;10.70;63.10;;;10.90;51.15;98767.03;4984929;28;20492;-69
2023/04/09 09:58:12;;;;;;;14.07;12.57;;;10.80;62.00;;;10.89;50.67;98756.41;4986907;28;20486;-70
2023/04/09 10:00:40;;;;;;;14.80;13.27;;;10.80;60.90;;;10.99;50.26;98754.16;4988778;28;20452;-68
2023/04/09 10:03:14;;;;;;;14.97;13.40;;;10.90;60.80;;;11.43;50.16;98751.22;4980790;28;20876;-67
2023/04/09 10:05:42;;;;;;;14.33;12.60;;;11.00;61.00;;;11.69;49.07;98749.66;4984028;28;20459;-67
2023/04/09 10:08:10;;;;;;;14.90;13.40;;;11.30;60.60;;;12.04;48.56;98746.81;4984624;28;20556;-66
2023/04/09 10:10:41;;;;;;;14.10;12.70;;;11.70;60.10;;;12.35;47.57;98749.97;4986978;28;20936;-68
2023/04/09 10:13:14;;;;;;;14.30;12.90;;;12.00;59.30;;;12.48;45.79;98741.81;4979624;28;20539;-67
2023/04/09 10:15:43;;;;;;;13.37;12.00;;;12.40;57.00;;;12.34;45.51;98746.41;4975859;28;20465;-70
2023/04/09 10:18:11;;;;;;;13.23;11.93;;;12.30;55.80;;;12.38;46.06;98725.16;4976437;28;20857;-70
2023/04/09 10:20:47;;;;;;;13.03;11.83;;;12.20;56.00;;;12.42;45.16;98732.66;4981411;28;20448;-65
2023/04/09 10:23:24;;;;;;;12.57;11.37;;;12.10;55.60;;;12.86;44.43;98721.31;4980461;28;20478;-68